sensor_id;sensor_type;location;lat;lon;timestamp;P1;durP1;ratioP1;P2;durP2;ratioP2
57231;SDS011;43488;46.934;8.276;2022-08-14T00:00:52;629.50;;;428.52;;
57231;SDS011;43488;46.934;8.276;2022-08-14T00:03:23;628.38;;;360.58;;
57231;SDS011;43488;46.934;8.276;2022-08-14T00:05:57;618.83;;;420.38;;
57231;SDS011;43488;46.934;8.276;2022-08-14T00:08:29;623.60;;;357.88;;
57231;SDS011;43488;46.934;8.276;2022-08-14T00:10:56;631.60;;;371.52;;
57231;SDS011;43488;46.934;8.276;2022-08-14T00:13:25;620.95;;;412.85;;
57231;SDS011;43488;46.934;8.276;2022-08-14T00:15:57;625.00;;;360.20;;
57231;SDS011;43488;46.934;8.276;2022-08-14T00:18:26;621.88;;;430.02;;
57231;SDS011;43488;46.934;8.276;2022-08-14T00:20:55;619.15;;;419.75;;
57231;SDS011;43488;46.934;8.276;2022-08-14T00:23:23;626.60;;;360.20;;
57231;SDS011;43488;46.934;8.276;2022-08-14T00:25:51;619.30;;;422.88;;
57231;SDS011;43488;46.934;8.276;2022-08-14T00:28:20;626.58;;;426.80;;
57231;SDS011;43488;46.934;8.276;2022-08-14T00:30:53;623.47;;;357.85;;
57231;SDS011;43488;46.934;8.276;2022-08-14T00:33:25;621.83;;;414.50;;
57231;SDS011;43488;46.934;8.276;2022-08-14T00:35:54;621.17;;;353.08;;
57231;SDS011;43488;46.934;8.276;2022-08-14T00:38:21;623.80;;;429.58;;
57231;SDS011;43488;46.934;8.276;2022-08-14T00:40:49;626.97;;;366.58;;
57231;SDS011;43488;46.934;8.276;2022-08-14T00:43:16;620.13;;;411.35;;
57231;SDS011;43488;46.934;8.276;2022-08-14T00:45:44;623.65;;;431.85;;
57231;SDS011;43488;46.934;8.276;2022-08-14T00:48:12;624.05;;;419.58;;
57231;SDS011;43488;46.934;8.276;2022-08-14T00:50:42;626.55;;;427.38;;
57231;SDS011;43488;46.934;8.276;2022-08-14T00:53:10;620.33;;;411.50;;
57231;SDS011;43488;46.934;8.276;2022-08-14T00:55:39;622.15;;;420.50;;
57231;SDS011;43488;46.934;8.276;2022-08-14T00:58:08;627.05;;;422.70;;
57231;SDS011;43488;46.934;8.276;2022-08-14T01:00:54;622.28;;;360.25;;
57231;SDS011;43488;46.934;8.276;2022-08-14T01:03:24;623.58;;;358.95;;
57231;SDS011;43488;46.934;8.276;2022-08-14T01:05:55;624.38;;;429.52;;
57231;SDS011;43488;46.934;8.276;2022-08-14T01:08:26;620.47;;;355.83;;
57231;SDS011;43488;46.934;8.276;2022-08-14T01:10:56;644.78;;;360.65;;
57231;SDS011;43488;46.934;8.276;2022-08-14T01:13:35;647.53;;;425.92;;
57231;SDS011;43488;46.934;8.276;2022-08-14T01:16:07;655.45;;;431.08;;
57231;SDS011;43488;46.934;8.276;2022-08-14T01:18:38;650.88;;;356.85;;
57231;SDS011;43488;46.934;8.276;2022-08-14T01:21:29;650.97;;;356.90;;
57231;SDS011;43488;46.934;8.276;2022-08-14T01:24:02;659.90;;;431.80;;
57231;SDS011;43488;46.934;8.276;2022-08-14T01:26:33;652.15;;;354.65;;
57231;SDS011;43488;46.934;8.276;2022-08-14T01:29:04;661.53;;;362.23;;
57231;SDS011;43488;46.934;8.276;2022-08-14T01:31:34;660.28;;;433.70;;
57231;SDS011;43488;46.934;8.276;2022-08-14T01:34:08;661.63;;;425.17;;
57231;SDS011;43488;46.934;8.276;2022-08-14T01:36:36;661.10;;;435.50;;
57231;SDS011;43488;46.934;8.276;2022-08-14T01:39:15;656.22;;;358.88;;
57231;SDS011;43488;46.934;8.276;2022-08-14T01:41:45;661.00;;;434.85;;
57231;SDS011;43488;46.934;8.276;2022-08-14T01:44:18;659.55;;;356.90;;
57231;SDS011;43488;46.934;8.276;2022-08-14T01:46:48;660.45;;;434.85;;
57231;SDS011;43488;46.934;8.276;2022-08-14T01:49:19;658.20;;;363.58;;
57231;SDS011;43488;46.934;8.276;2022-08-14T01:51:48;663.00;;;369.30;;
57231;SDS011;43488;46.934;8.276;2022-08-14T01:54:20;661.03;;;427.08;;
57231;SDS011;43488;46.934;8.276;2022-08-14T01:56:52;663.22;;;433.15;;
57231;SDS011;43488;46.934;8.276;2022-08-14T01:59:26;662.35;;;363.52;;
57231;SDS011;43488;46.934;8.276;2022-08-14T02:02:02;659.47;;;358.98;;
57231;SDS011;43488;46.934;8.276;2022-08-14T02:04:38;653.88;;;350.35;;
57231;SDS011;43488;46.934;8.276;2022-08-14T02:07:07;664.05;;;435.27;;
57231;SDS011;43488;46.934;8.276;2022-08-14T02:09:35;662.00;;;424.75;;
57231;SDS011;43488;46.934;8.276;2022-08-14T02:12:06;653.22;;;354.50;;
57231;SDS011;43488;46.934;8.276;2022-08-14T02:14:34;660.05;;;426.27;;
57231;SDS011;43488;46.934;8.276;2022-08-14T02:17:02;663.67;;;431.52;;
57231;SDS011;43488;46.934;8.276;2022-08-14T02:19:30;662.33;;;431.30;;
57231;SDS011;43488;46.934;8.276;2022-08-14T02:21:58;659.63;;;359.30;;
57231;SDS011;43488;46.934;8.276;2022-08-14T02:24:29;659.85;;;357.85;;
57231;SDS011;43488;46.934;8.276;2022-08-14T02:26:57;660.50;;;361.60;;
57231;SDS011;43488;46.934;8.276;2022-08-14T02:29:26;654.25;;;354.05;;
57231;SDS011;43488;46.934;8.276;2022-08-14T02:31:56;652.67;;;356.25;;
57231;SDS011;43488;46.934;8.276;2022-08-14T02:34:27;660.50;;;420.83;;
57231;SDS011;43488;46.934;8.276;2022-08-14T02:37:05;660.88;;;421.92;;
57231;SDS011;43488;46.934;8.276;2022-08-14T02:39:36;657.60;;;422.13;;
57231;SDS011;43488;46.934;8.276;2022-08-14T02:42:08;655.80;;;357.67;;
57231;SDS011;43488;46.934;8.276;2022-08-14T02:44:43;654.03;;;347.95;;
57231;SDS011;43488;46.934;8.276;2022-08-14T02:47:11;660.83;;;361.90;;
57231;SDS011;43488;46.934;8.276;2022-08-14T02:49:39;658.92;;;425.52;;
57231;SDS011;43488;46.934;8.276;2022-08-14T02:52:06;660.53;;;433.02;;
57231;SDS011;43488;46.934;8.276;2022-08-14T02:54:34;659.28;;;417.60;;
57231;SDS011;43488;46.934;8.276;2022-08-14T02:57:02;658.85;;;358.17;;
57231;SDS011;43488;46.934;8.276;2022-08-14T02:59:32;654.90;;;353.98;;
57231;SDS011;43488;46.934;8.276;2022-08-14T03:02:02;659.40;;;360.25;;
57231;SDS011;43488;46.934;8.276;2022-08-14T03:04:30;662.65;;;431.73;;
57231;SDS011;43488;46.934;8.276;2022-08-14T03:06:58;660.50;;;432.23;;
57231;SDS011;43488;46.934;8.276;2022-08-14T03:09:25;654.63;;;356.13;;
57231;SDS011;43488;46.934;8.276;2022-08-14T03:11:53;658.78;;;426.70;;
57231;SDS011;43488;46.934;8.276;2022-08-14T03:14:21;655.60;;;351.95;;
57231;SDS011;43488;46.934;8.276;2022-08-14T03:16:52;660.03;;;427.25;;
57231;SDS011;43488;46.934;8.276;2022-08-14T03:19:20;657.47;;;421.83;;
57231;SDS011;43488;46.934;8.276;2022-08-14T03:21:48;663.33;;;432.85;;
57231;SDS011;43488;46.934;8.276;2022-08-14T03:24:15;658.17;;;348.77;;
57231;SDS011;43488;46.934;8.276;2022-08-14T03:26:46;659.30;;;427.23;;
57231;SDS011;43488;46.934;8.276;2022-08-14T03:29:16;663.72;;;430.50;;
57231;SDS011;43488;46.934;8.276;2022-08-14T03:31:46;660.05;;;359.95;;
57231;SDS011;43488;46.934;8.276;2022-08-14T03:34:17;657.75;;;420.20;;
57231;SDS011;43488;46.934;8.276;2022-08-14T03:36:44;659.40;;;424.48;;
57231;SDS011;43488;46.934;8.276;2022-08-14T03:39:12;662.30;;;429.50;;
57231;SDS011;43488;46.934;8.276;2022-08-14T03:41:39;661.60;;;359.48;;
57231;SDS011;43488;46.934;8.276;2022-08-14T03:44:06;660.97;;;351.65;;
57231;SDS011;43488;46.934;8.276;2022-08-14T03:46:35;660.95;;;428.52;;
57231;SDS011;43488;46.934;8.276;2022-08-14T03:49:05;654.65;;;347.75;;
57231;SDS011;43488;46.934;8.276;2022-08-14T03:51:33;664.22;;;428.90;;
57231;SDS011;43488;46.934;8.276;2022-08-14T03:54:03;661.28;;;422.02;;
57231;SDS011;43488;46.934;8.276;2022-08-14T03:56:33;654.55;;;412.70;;
57231;SDS011;43488;46.934;8.276;2022-08-14T03:59:06;660.55;;;417.73;;
57231;SDS011;43488;46.934;8.276;2022-08-14T04:01:35;655.17;;;354.27;;
57231;SDS011;43488;46.934;8.276;2022-08-14T04:04:04;661.08;;;421.85;;
57231;SDS011;43488;46.934;8.276;2022-08-14T04:06:33;658.50;;;348.73;;
57231;SDS011;43488;46.934;8.276;2022-08-14T04:09:04;654.88;;;349.98;;
57231;SDS011;43488;46.934;8.276;2022-08-14T04:11:36;659.90;;;355.13;;
57231;SDS011;43488;46.934;8.276;2022-08-14T04:14:04;662.15;;;413.70;;
57231;SDS011;43488;46.934;8.276;2022-08-14T04:16:32;662.13;;;426.63;;
57231;SDS011;43488;46.934;8.276;2022-08-14T04:19:00;659.88;;;352.65;;
57231;SDS011;43488;46.934;8.276;2022-08-14T04:21:29;661.65;;;423.25;;
57231;SDS011;43488;46.934;8.276;2022-08-14T04:23:58;659.53;;;417.40;;
57231;SDS011;43488;46.934;8.276;2022-08-14T04:26:28;658.78;;;419.13;;
57231;SDS011;43488;46.934;8.276;2022-08-14T04:28:57;662.20;;;357.58;;
57231;SDS011;43488;46.934;8.276;2022-08-14T04:31:26;661.13;;;422.38;;
57231;SDS011;43488;46.934;8.276;2022-08-14T04:33:53;659.55;;;417.65;;
57231;SDS011;43488;46.934;8.276;2022-08-14T04:36:21;655.45;;;348.45;;
57231;SDS011;43488;46.934;8.276;2022-08-14T04:38:49;656.80;;;353.60;;
57231;SDS011;43488;46.934;8.276;2022-08-14T04:41:35;661.10;;;424.98;;
57231;SDS011;43488;46.934;8.276;2022-08-14T04:44:21;655.17;;;344.92;;
57231;SDS011;43488;46.934;8.276;2022-08-14T04:46:49;653.30;;;346.63;;
57231;SDS011;43488;46.934;8.276;2022-08-14T04:49:36;665.03;;;427.05;;
57231;SDS011;43488;46.934;8.276;2022-08-14T04:52:03;662.92;;;431.27;;
57231;SDS011;43488;46.934;8.276;2022-08-14T04:54:30;661.92;;;419.58;;
57231;SDS011;43488;46.934;8.276;2022-08-14T04:56:57;660.35;;;349.65;;
57231;SDS011;43488;46.934;8.276;2022-08-14T04:59:25;653.67;;;347.58;;
57231;SDS011;43488;46.934;8.276;2022-08-14T05:01:53;663.80;;;428.25;;
57231;SDS011;43488;46.934;8.276;2022-08-14T05:04:20;663.88;;;358.35;;
57231;SDS011;43488;46.934;8.276;2022-08-14T05:06:48;663.40;;;426.75;;
57231;SDS011;43488;46.934;8.276;2022-08-14T05:09:17;660.38;;;419.50;;
57231;SDS011;43488;46.934;8.276;2022-08-14T05:11:45;662.60;;;358.42;;
57231;SDS011;43488;46.934;8.276;2022-08-14T05:14:13;657.33;;;348.58;;
57231;SDS011;43488;46.934;8.276;2022-08-14T05:16:42;660.35;;;428.65;;
57231;SDS011;43488;46.934;8.276;2022-08-14T05:19:10;656.70;;;355.77;;
57231;SDS011;43488;46.934;8.276;2022-08-14T05:21:40;659.65;;;355.67;;
57231;SDS011;43488;46.934;8.276;2022-08-14T05:24:07;654.22;;;345.15;;
57231;SDS011;43488;46.934;8.276;2022-08-14T05:26:37;653.13;;;350.55;;
57231;SDS011;43488;46.934;8.276;2022-08-14T05:29:09;660.28;;;421.20;;
57231;SDS011;43488;46.934;8.276;2022-08-14T05:31:37;662.53;;;431.60;;
57231;SDS011;43488;46.934;8.276;2022-08-14T05:34:08;655.97;;;347.37;;
57231;SDS011;43488;46.934;8.276;2022-08-14T05:36:36;658.80;;;421.58;;
57231;SDS011;43488;46.934;8.276;2022-08-14T05:39:04;656.70;;;355.08;;
57231;SDS011;43488;46.934;8.276;2022-08-14T05:41:32;652.10;;;348.65;;
57231;SDS011;43488;46.934;8.276;2022-08-14T05:43:59;651.45;;;343.45;;
57231;SDS011;43488;46.934;8.276;2022-08-14T05:46:27;656.92;;;356.90;;
57231;SDS011;43488;46.934;8.276;2022-08-14T05:48:55;664.35;;;426.70;;
57231;SDS011;43488;46.934;8.276;2022-08-14T05:51:24;667.67;;;434.75;;
57231;SDS011;43488;46.934;8.276;2022-08-14T05:53:54;663.08;;;426.30;;
57231;SDS011;43488;46.934;8.276;2022-08-14T05:56:23;654.33;;;354.80;;
57231;SDS011;43488;46.934;8.276;2022-08-14T05:58:51;663.20;;;428.77;;
57231;SDS011;43488;46.934;8.276;2022-08-14T06:01:20;660.33;;;358.38;;
57231;SDS011;43488;46.934;8.276;2022-08-14T06:03:48;660.10;;;353.10;;
57231;SDS011;43488;46.934;8.276;2022-08-14T06:06:16;660.95;;;428.67;;
57231;SDS011;43488;46.934;8.276;2022-08-14T06:08:45;662.10;;;356.95;;
57231;SDS011;43488;46.934;8.276;2022-08-14T06:11:14;656.63;;;355.60;;
57231;SDS011;43488;46.934;8.276;2022-08-14T06:13:42;659.88;;;352.90;;
57231;SDS011;43488;46.934;8.276;2022-08-14T06:16:10;661.20;;;421.10;;
57231;SDS011;43488;46.934;8.276;2022-08-14T06:18:38;658.42;;;359.65;;
57231;SDS011;43488;46.934;8.276;2022-08-14T06:21:06;657.58;;;361.58;;
57231;SDS011;43488;46.934;8.276;2022-08-14T06:23:34;666.47;;;430.73;;
57231;SDS011;43488;46.934;8.276;2022-08-14T06:26:02;660.28;;;366.48;;
57231;SDS011;43488;46.934;8.276;2022-08-14T06:28:29;667.95;;;440.15;;
57231;SDS011;43488;46.934;8.276;2022-08-14T06:30:57;665.17;;;431.45;;
57231;SDS011;43488;46.934;8.276;2022-08-14T06:33:25;658.50;;;360.38;;
57231;SDS011;43488;46.934;8.276;2022-08-14T06:35:53;667.53;;;433.50;;
57231;SDS011;43488;46.934;8.276;2022-08-14T06:38:21;666.95;;;374.75;;
57231;SDS011;43488;46.934;8.276;2022-08-14T06:40:49;665.85;;;436.23;;
57231;SDS011;43488;46.934;8.276;2022-08-14T06:43:17;667.45;;;429.45;;
57231;SDS011;43488;46.934;8.276;2022-08-14T06:45:46;657.72;;;366.10;;
57231;SDS011;43488;46.934;8.276;2022-08-14T06:48:16;667.35;;;434.98;;
57231;SDS011;43488;46.934;8.276;2022-08-14T06:50:45;667.13;;;438.00;;
57231;SDS011;43488;46.934;8.276;2022-08-14T06:53:13;661.90;;;423.25;;
57231;SDS011;43488;46.934;8.276;2022-08-14T06:55:43;661.72;;;370.90;;
57231;SDS011;43488;46.934;8.276;2022-08-14T06:58:12;663.33;;;372.27;;
57231;SDS011;43488;46.934;8.276;2022-08-14T07:00:42;661.60;;;380.15;;
57231;SDS011;43488;46.934;8.276;2022-08-14T07:03:30;660.17;;;374.55;;
57231;SDS011;43488;46.934;8.276;2022-08-14T07:06:18;664.08;;;379.52;;
57231;SDS011;43488;46.934;8.276;2022-08-14T07:08:45;663.67;;;377.15;;
57231;SDS011;43488;46.934;8.276;2022-08-14T07:11:13;658.22;;;375.95;;
57231;SDS011;43488;46.934;8.276;2022-08-14T07:13:40;663.80;;;377.60;;
57231;SDS011;43488;46.934;8.276;2022-08-14T07:16:07;664.08;;;389.35;;
57231;SDS011;43488;46.934;8.276;2022-08-14T07:18:38;669.58;;;450.67;;
57231;SDS011;43488;46.934;8.276;2022-08-14T07:21:07;657.33;;;383.13;;
57231;SDS011;43488;46.934;8.276;2022-08-14T07:23:36;657.38;;;375.33;;
57231;SDS011;43488;46.934;8.276;2022-08-14T07:26:05;662.05;;;388.60;;
57231;SDS011;43488;46.934;8.276;2022-08-14T07:28:34;660.72;;;459.13;;
57231;SDS011;43488;46.934;8.276;2022-08-14T07:31:04;655.88;;;377.40;;
57231;SDS011;43488;46.934;8.276;2022-08-14T07:33:38;661.55;;;440.27;;
57231;SDS011;43488;46.934;8.276;2022-08-14T07:36:10;661.72;;;450.23;;
57231;SDS011;43488;46.934;8.276;2022-08-14T07:38:40;660.42;;;446.02;;
57231;SDS011;43488;46.934;8.276;2022-08-14T07:41:08;659.78;;;387.92;;
57231;SDS011;43488;46.934;8.276;2022-08-14T07:43:39;654.72;;;375.55;;
57231;SDS011;43488;46.934;8.276;2022-08-14T07:46:07;660.38;;;449.00;;
57231;SDS011;43488;46.934;8.276;2022-08-14T07:48:38;661.35;;;454.45;;
57231;SDS011;43488;46.934;8.276;2022-08-14T07:53:33;659.67;;;435.52;;
57231;SDS011;43488;46.934;8.276;2022-08-14T07:56:01;659.17;;;451.55;;
57231;SDS011;43488;46.934;8.276;2022-08-14T07:58:29;659.15;;;449.88;;
57231;SDS011;43488;46.934;8.276;2022-08-14T08:00:56;658.45;;;454.60;;
57231;SDS011;43488;46.934;8.276;2022-08-14T08:03:24;661.28;;;454.83;;
57231;SDS011;43488;46.934;8.276;2022-08-14T08:05:53;657.47;;;388.35;;
57231;SDS011;43488;46.934;8.276;2022-08-14T08:08:21;660.85;;;459.63;;
57231;SDS011;43488;46.934;8.276;2022-08-14T08:10:52;660.15;;;457.17;;
57231;SDS011;43488;46.934;8.276;2022-08-14T08:13:22;660.03;;;391.48;;
57231;SDS011;43488;46.934;8.276;2022-08-14T08:15:52;659.88;;;460.17;;
57231;SDS011;43488;46.934;8.276;2022-08-14T08:20:53;664.25;;;457.77;;
57231;SDS011;43488;46.934;8.276;2022-08-14T08:23:22;660.03;;;451.77;;
57231;SDS011;43488;46.934;8.276;2022-08-14T08:25:51;662.30;;;464.17;;
57231;SDS011;43488;46.934;8.276;2022-08-14T08:28:24;663.08;;;460.98;;
57231;SDS011;43488;46.934;8.276;2022-08-14T08:30:58;657.20;;;398.80;;
57231;SDS011;43488;46.934;8.276;2022-08-14T08:33:29;660.72;;;395.98;;
57231;SDS011;43488;46.934;8.276;2022-08-14T08:35:59;671.67;;;472.63;;
57231;SDS011;43488;46.934;8.276;2022-08-14T08:38:31;659.22;;;393.92;;
57231;SDS011;43488;46.934;8.276;2022-08-14T08:40:59;663.75;;;402.17;;
57231;SDS011;43488;46.934;8.276;2022-08-14T08:43:28;666.85;;;408.85;;
57231;SDS011;43488;46.934;8.276;2022-08-14T08:46:01;665.20;;;412.05;;
57231;SDS011;43488;46.934;8.276;2022-08-14T08:48:51;665.03;;;455.77;;
57231;SDS011;43488;46.934;8.276;2022-08-14T08:51:26;667.83;;;464.52;;
57231;SDS011;43488;46.934;8.276;2022-08-14T08:53:57;668.83;;;400.65;;
57231;SDS011;43488;46.934;8.276;2022-08-14T08:56:45;646.47;;;406.08;;
57231;SDS011;43488;46.934;8.276;2022-08-14T08:59:20;659.35;;;411.02;;
57231;SDS011;43488;46.934;8.276;2022-08-14T09:01:55;663.22;;;464.00;;
57231;SDS011;43488;46.934;8.276;2022-08-14T09:04:25;658.47;;;457.77;;
57231;SDS011;43488;46.934;8.276;2022-08-14T09:06:55;653.65;;;398.17;;
57231;SDS011;43488;46.934;8.276;2022-08-14T09:09:27;658.53;;;412.27;;
57231;SDS011;43488;46.934;8.276;2022-08-14T09:12:00;620.70;;;376.58;;
57231;SDS011;43488;46.934;8.276;2022-08-14T09:14:29;624.90;;;372.60;;
57231;SDS011;43488;46.934;8.276;2022-08-14T09:16:58;620.95;;;360.58;;
57231;SDS011;43488;46.934;8.276;2022-08-14T09:19:25;629.42;;;389.70;;
57231;SDS011;43488;46.934;8.276;2022-08-14T09:21:54;628.35;;;384.65;;
57231;SDS011;43488;46.934;8.276;2022-08-14T09:24:21;628.83;;;391.13;;
57231;SDS011;43488;46.934;8.276;2022-08-14T09:26:49;627.47;;;367.42;;
57231;SDS011;43488;46.934;8.276;2022-08-14T09:29:18;614.08;;;427.45;;
57231;SDS011;43488;46.934;8.276;2022-08-14T09:31:49;623.25;;;375.90;;
57231;SDS011;43488;46.934;8.276;2022-08-14T09:34:41;608.60;;;415.27;;
57231;SDS011;43488;46.934;8.276;2022-08-14T09:44:03;625.58;;;393.67;;
57231;SDS011;43488;46.934;8.276;2022-08-14T09:46:33;616.05;;;442.80;;
57231;SDS011;43488;46.934;8.276;2022-08-14T09:49:02;610.85;;;432.65;;
57231;SDS011;43488;46.934;8.276;2022-08-14T09:51:32;630.13;;;401.55;;
57231;SDS011;43488;46.934;8.276;2022-08-14T09:54:06;628.20;;;389.85;;
57231;SDS011;43488;46.934;8.276;2022-08-14T09:56:47;630.45;;;393.60;;
57231;SDS011;43488;46.934;8.276;2022-08-14T09:59:17;634.35;;;389.92;;
57231;SDS011;43488;46.934;8.276;2022-08-14T10:01:48;613.40;;;438.00;;
57231;SDS011;43488;46.934;8.276;2022-08-14T10:04:17;614.25;;;440.25;;
57231;SDS011;43488;46.934;8.276;2022-08-14T10:09:16;621.42;;;372.85;;
57231;SDS011;43488;46.934;8.276;2022-08-14T10:11:57;615.75;;;434.67;;
57231;SDS011;43488;46.934;8.276;2022-08-14T10:14:27;607.80;;;428.10;;
57231;SDS011;43488;46.934;8.276;2022-08-14T10:16:58;619.67;;;374.05;;
57231;SDS011;43488;46.934;8.276;2022-08-14T10:19:28;610.13;;;438.00;;
57231;SDS011;43488;46.934;8.276;2022-08-14T10:21:57;611.60;;;441.30;;
57231;SDS011;43488;46.934;8.276;2022-08-14T10:24:36;624.22;;;379.75;;
57231;SDS011;43488;46.934;8.276;2022-08-14T10:27:15;616.53;;;454.65;;
57231;SDS011;43488;46.934;8.276;2022-08-14T10:29:49;614.13;;;445.77;;
57231;SDS011;43488;46.934;8.276;2022-08-14T10:32:20;616.85;;;459.98;;
57231;SDS011;43488;46.934;8.276;2022-08-14T10:34:48;627.22;;;373.23;;
57231;SDS011;43488;46.934;8.276;2022-08-14T10:37:16;613.38;;;413.55;;
57231;SDS011;43488;46.934;8.276;2022-08-14T10:39:55;621.92;;;364.77;;
57231;SDS011;43488;46.934;8.276;2022-08-14T10:42:38;611.90;;;426.75;;
57231;SDS011;43488;46.934;8.276;2022-08-14T10:45:19;611.42;;;431.48;;
57231;SDS011;43488;46.934;8.276;2022-08-14T10:47:52;614.38;;;424.33;;
57231;SDS011;43488;46.934;8.276;2022-08-14T10:50:29;612.15;;;427.88;;
57231;SDS011;43488;46.934;8.276;2022-08-14T10:52:59;625.10;;;384.55;;
57231;SDS011;43488;46.934;8.276;2022-08-14T10:55:32;617.17;;;433.45;;
57231;SDS011;43488;46.934;8.276;2022-08-14T10:58:08;630.10;;;383.83;;
57231;SDS011;43488;46.934;8.276;2022-08-14T11:00:38;620.85;;;429.83;;
57231;SDS011;43488;46.934;8.276;2022-08-14T11:03:08;621.85;;;430.17;;
57231;SDS011;43488;46.934;8.276;2022-08-14T11:05:43;635.58;;;401.25;;
57231;SDS011;43488;46.934;8.276;2022-08-14T11:08:17;607.03;;;436.58;;
57231;SDS011;43488;46.934;8.276;2022-08-14T11:10:58;614.60;;;442.95;;
57231;SDS011;43488;46.934;8.276;2022-08-14T11:13:29;635.88;;;371.73;;
57231;SDS011;43488;46.934;8.276;2022-08-14T11:15:59;618.38;;;458.02;;
57231;SDS011;43488;46.934;8.276;2022-08-14T11:18:28;626.47;;;458.65;;
57231;SDS011;43488;46.934;8.276;2022-08-14T11:20:58;640.30;;;394.88;;
57231;SDS011;43488;46.934;8.276;2022-08-14T11:23:29;618.33;;;441.98;;
57231;SDS011;43488;46.934;8.276;2022-08-14T11:25:59;635.78;;;419.02;;
57231;SDS011;43488;46.934;8.276;2022-08-14T11:28:31;624.40;;;457.50;;
57231;SDS011;43488;46.934;8.276;2022-08-14T11:31:01;638.63;;;422.35;;
57231;SDS011;43488;46.934;8.276;2022-08-14T11:33:31;634.17;;;361.77;;
57231;SDS011;43488;46.934;8.276;2022-08-14T11:36:03;638.83;;;401.98;;
57231;SDS011;43488;46.934;8.276;2022-08-14T11:38:36;621.42;;;422.67;;
57231;SDS011;43488;46.934;8.276;2022-08-14T11:41:08;645.60;;;394.40;;
57231;SDS011;43488;46.934;8.276;2022-08-14T11:43:43;618.30;;;409.10;;
57231;SDS011;43488;46.934;8.276;2022-08-14T11:46:14;626.13;;;355.23;;
57231;SDS011;43488;46.934;8.276;2022-08-14T11:48:46;631.75;;;347.10;;
57231;SDS011;43488;46.934;8.276;2022-08-14T11:51:21;616.22;;;395.10;;
57231;SDS011;43488;46.934;8.276;2022-08-14T11:53:55;626.25;;;362.17;;
57231;SDS011;43488;46.934;8.276;2022-08-14T11:56:35;625.42;;;424.85;;
57231;SDS011;43488;46.934;8.276;2022-08-14T11:59:06;617.50;;;403.40;;
57231;SDS011;43488;46.934;8.276;2022-08-14T12:01:42;639.45;;;375.60;;
57231;SDS011;43488;46.934;8.276;2022-08-14T12:06:49;625.72;;;344.60;;
57231;SDS011;43488;46.934;8.276;2022-08-14T12:09:32;627.10;;;356.17;;
57231;SDS011;43488;46.934;8.276;2022-08-14T12:12:18;628.20;;;422.57;;
57231;SDS011;43488;46.934;8.276;2022-08-14T12:14:52;621.70;;;424.50;;
57231;SDS011;43488;46.934;8.276;2022-08-14T12:17:23;615.53;;;418.60;;
57231;SDS011;43488;46.934;8.276;2022-08-14T12:19:56;639.38;;;389.27;;
57231;SDS011;43488;46.934;8.276;2022-08-14T12:22:40;616.83;;;411.77;;
57231;SDS011;43488;46.934;8.276;2022-08-14T12:25:11;616.13;;;434.55;;
57231;SDS011;43488;46.934;8.276;2022-08-14T12:27:45;612.53;;;431.42;;
57231;SDS011;43488;46.934;8.276;2022-08-14T12:30:36;619.70;;;442.25;;
57231;SDS011;43488;46.934;8.276;2022-08-14T12:33:28;636.33;;;412.17;;
57231;SDS011;43488;46.934;8.276;2022-08-14T12:35:58;620.42;;;457.02;;
57231;SDS011;43488;46.934;8.276;2022-08-14T12:41:12;626.38;;;461.33;;
57231;SDS011;43488;46.934;8.276;2022-08-14T12:43:48;631.08;;;401.67;;
57231;SDS011;43488;46.934;8.276;2022-08-14T12:49:11;622.15;;;458.88;;
57231;SDS011;43488;46.934;8.276;2022-08-14T12:51:43;616.90;;;457.05;;
57231;SDS011;43488;46.934;8.276;2022-08-14T12:54:23;637.05;;;421.13;;
57231;SDS011;43488;46.934;8.276;2022-08-14T12:57:02;632.72;;;418.13;;
57231;SDS011;43488;46.934;8.276;2022-08-14T12:59:37;619.95;;;466.42;;
57231;SDS011;43488;46.934;8.276;2022-08-14T13:02:05;636.10;;;431.48;;
57231;SDS011;43488;46.934;8.276;2022-08-14T13:04:33;632.53;;;432.70;;
57231;SDS011;43488;46.934;8.276;2022-08-14T13:07:03;621.30;;;478.15;;
57231;SDS011;43488;46.934;8.276;2022-08-14T13:12:02;612.10;;;446.27;;
57231;SDS011;43488;46.934;8.276;2022-08-14T13:14:32;618.67;;;469.67;;
57231;SDS011;43488;46.934;8.276;2022-08-14T13:17:00;634.83;;;443.48;;
57231;SDS011;43488;46.934;8.276;2022-08-14T13:19:29;621.88;;;476.02;;
57231;SDS011;43488;46.934;8.276;2022-08-14T13:21:58;616.40;;;454.55;;
57231;SDS011;43488;46.934;8.276;2022-08-14T13:24:26;629.35;;;418.45;;
57231;SDS011;43488;46.934;8.276;2022-08-14T13:26:54;615.50;;;454.92;;
57231;SDS011;43488;46.934;8.276;2022-08-14T13:29:26;618.20;;;462.50;;
57231;SDS011;43488;46.934;8.276;2022-08-14T13:31:55;618.70;;;457.88;;
57231;SDS011;43488;46.934;8.276;2022-08-14T13:34:24;627.42;;;418.95;;
57231;SDS011;43488;46.934;8.276;2022-08-14T13:36:54;615.10;;;454.80;;
57231;SDS011;43488;46.934;8.276;2022-08-14T13:39:25;628.03;;;420.75;;
57231;SDS011;43488;46.934;8.276;2022-08-14T13:41:55;628.10;;;424.35;;
57231;SDS011;43488;46.934;8.276;2022-08-14T13:44:27;631.95;;;424.05;;
57231;SDS011;43488;46.934;8.276;2022-08-14T13:46:55;616.88;;;457.48;;
57231;SDS011;43488;46.934;8.276;2022-08-14T13:49:24;632.28;;;433.88;;
57231;SDS011;43488;46.934;8.276;2022-08-14T13:51:52;627.65;;;422.00;;
57231;SDS011;43488;46.934;8.276;2022-08-14T13:54:24;632.30;;;432.42;;
57231;SDS011;43488;46.934;8.276;2022-08-14T13:57:00;633.88;;;437.40;;
57231;SDS011;43488;46.934;8.276;2022-08-14T13:59:29;628.72;;;424.90;;
57231;SDS011;43488;46.934;8.276;2022-08-14T14:02:03;616.53;;;468.38;;
57231;SDS011;43488;46.934;8.276;2022-08-14T14:04:32;628.55;;;424.02;;
57231;SDS011;43488;46.934;8.276;2022-08-14T14:07:09;633.65;;;438.42;;
57231;SDS011;43488;46.934;8.276;2022-08-14T14:09:43;617.47;;;473.92;;
57231;SDS011;43488;46.934;8.276;2022-08-14T14:12:14;616.10;;;470.60;;
57231;SDS011;43488;46.934;8.276;2022-08-14T14:14:43;615.13;;;465.92;;
57231;SDS011;43488;46.934;8.276;2022-08-14T14:17:13;635.45;;;442.00;;
57231;SDS011;43488;46.934;8.276;2022-08-14T14:19:41;629.13;;;431.85;;
57231;SDS011;43488;46.934;8.276;2022-08-14T14:22:13;627.67;;;419.55;;
57231;SDS011;43488;46.934;8.276;2022-08-14T14:24:43;633.20;;;434.92;;
57231;SDS011;43488;46.934;8.276;2022-08-14T14:27:12;634.22;;;440.95;;
57231;SDS011;43488;46.934;8.276;2022-08-14T14:29:42;631.22;;;434.40;;
57231;SDS011;43488;46.934;8.276;2022-08-14T14:32:12;621.50;;;470.13;;
57231;SDS011;43488;46.934;8.276;2022-08-14T14:34:42;632.72;;;432.63;;
57231;SDS011;43488;46.934;8.276;2022-08-14T14:37:12;617.97;;;471.17;;
57231;SDS011;43488;46.934;8.276;2022-08-14T14:39:43;618.25;;;463.25;;
57231;SDS011;43488;46.934;8.276;2022-08-14T14:42:14;619.10;;;467.38;;